Time;durP1;ratioP1;P1;durP2;ratioP2;P2;SDS_P1;SDS_P2;PMS_P1;PMS_P2;Temp;Humidity;BMP_temperature;BMP_pressure;BME280_temperature;BME280_humidity;BME280_pressure;Samples;Min_cycle;Max_cycle;Signal;HPM_P1;HPM_P2
2021/09/06 00:00:36;;;;;;;26.08;17.40;;;15.40;86.20;;;;;;4995525;28;20040;-47
2021/09/06 00:03:01;;;;;;;33.80;19.80;;;15.50;85.80;;;;;;4995738;28;20114;-48
2021/09/06 00:05:27;;;;;;;32.55;18.98;;;15.50;86.00;;;;;;4995484;28;20029;-48
2021/09/06 00:07:53;;;;;;;36.95;17.63;;;15.50;85.70;;;;;;4995424;28;20034;-49
2021/09/06 00:10:41;;;;;;;32.10;19.02;;;15.30;86.20;;;;;;4995183;28;20379;-48
2021/09/06 00:13:09;;;;;;;35.17;21.17;;;15.30;86.60;;;;;;4995276;28;20050;-46
2021/09/06 00:15:37;;;;;;;32.05;19.65;;;15.40;86.20;;;;;;4995355;28;20026;-48
2021/09/06 00:18:03;;;;;;;29.75;18.15;;;15.30;86.70;;;;;;4996400;28;20073;-49
2021/09/06 00:20:31;;;;;;;25.70;16.88;;;15.30;86.30;;;;;;4995402;28;20172;-47
2021/09/06 00:22:57;;;;;;;30.55;20.63;;;15.20;86.60;;;;;;4995169;28;20030;-48
2021/09/06 00:25:22;;;;;;;28.52;18.05;;;15.10;87.00;;;;;;4995327;28;20033;-47
2021/09/06 00:27:49;;;;;;;30.25;19.30;;;15.10;87.20;;;;;;4995044;28;20026;-48
2021/09/06 00:30:14;;;;;;;29.45;19.52;;;15.10;87.00;;;;;;4977475;28;20050;-49
2021/09/06 00:32:40;;;;;;;33.15;20.38;;;15.00;87.30;;;;;;4994939;28;20475;-47
2021/09/06 00:35:07;;;;;;;30.35;18.73;;;14.90;87.60;;;;;;4994935;28;20054;-49
2021/09/06 00:37:33;;;;;;;31.75;20.63;;;14.90;87.70;;;;;;4995267;28;20050;-47
2021/09/06 00:39:59;;;;;;;32.15;20.13;;;15.00;87.80;;;;;;4994848;28;20077;-47
2021/09/06 00:42:25;;;;;;;35.13;20.63;;;14.90;88.00;;;;;;4994800;28;20041;-47
2021/09/06 00:44:50;;;;;;;35.15;21.17;;;14.90;88.10;;;;;;4995560;28;20088;-47
2021/09/06 00:47:16;;;;;;;34.33;20.10;;;14.90;88.10;;;;;;4995060;28;20027;-46
2021/09/06 00:49:42;;;;;;;31.00;19.40;;;14.90;88.10;;;;;;4994488;28;20057;-47
2021/09/06 00:52:08;;;;;;;36.30;19.92;;;14.80;88.10;;;;;;4994492;28;20094;-47
2021/09/06 00:54:34;;;;;;;33.63;21.27;;;14.80;88.20;;;;;;4994720;28;20026;-47
2021/09/06 00:56:59;;;;;;;30.65;20.08;;;14.80;88.20;;;;;;4993229;28;20019;-47
2021/09/06 00:59:25;;;;;;;31.30;20.73;;;14.80;88.20;;;;;;4993211;28;20038;-47
2021/09/06 01:01:51;;;;;;;31.75;19.13;;;14.80;88.30;;;;;;4994166;28;20076;-47
2021/09/06 01:04:16;;;;;;;31.38;20.08;;;14.70;88.40;;;;;;4994551;28;20033;-48
2021/09/06 01:06:42;;;;;;;31.50;20.15;;;14.70;88.50;;;;;;4994356;28;20138;-48
2021/09/06 01:09:07;;;;;;;34.38;23.98;;;14.60;88.80;;;;;;4993793;28;20208;-48
2021/09/06 01:11:33;;;;;;;34.78;21.92;;;14.80;88.50;;;;;;4993913;28;20081;-48
2021/09/06 01:14:00;;;;;;;30.10;19.90;;;14.60;88.50;;;;;;4994241;28;20025;-49
2021/09/06 01:16:26;;;;;;;35.03;20.40;;;14.60;88.70;;;;;;4993731;28;20041;-48
2021/09/06 01:18:52;;;;;;;38.17;22.35;;;14.60;88.40;;;;;;4993820;28;20044;-48
2021/09/06 01:21:18;;;;;;;37.00;22.00;;;14.50;88.40;;;;;;4993908;28;20054;-47
2021/09/06 01:23:43;;;;;;;33.53;20.75;;;14.40;88.50;;;;;;4993832;28;20443;-47
2021/09/06 01:26:10;;;;;;;34.40;21.10;;;14.40;88.50;;;;;;4993778;28;20034;-47
2021/09/06 01:28:36;;;;;;;28.42;20.10;;;14.30;88.60;;;;;;4993625;28;20030;-46
2021/09/06 01:31:02;;;;;;;36.53;21.15;;;14.30;88.70;;;;;;4993314;28;20054;-49
2021/09/06 01:33:28;;;;;;;32.53;20.65;;;14.30;88.90;;;;;;4992113;28;20035;-49
2021/09/06 01:35:53;;;;;;;36.08;21.00;;;14.20;89.20;;;;;;4993535;28;20379;-49
2021/09/06 01:38:19;;;;;;;31.98;20.52;;;14.20;89.30;;;;;;4993575;28;20049;-47
2021/09/06 01:40:45;;;;;;;36.78;21.52;;;14.20;89.40;;;;;;4993656;28;20121;-47
2021/09/06 01:43:10;;;;;;;34.30;19.73;;;14.20;89.40;;;;;;4993548;28;20053;-47
2021/09/06 01:45:36;;;;;;;36.10;21.58;;;14.20;89.60;;;;;;4993486;28;20038;-47
2021/09/06 01:48:02;;;;;;;33.58;20.80;;;14.10;89.60;;;;;;4993672;28;20026;-49
2021/09/06 01:50:28;;;;;;;36.25;23.30;;;14.10;89.80;;;;;;4993600;28;20081;-47
2021/09/06 01:52:53;;;;;;;38.17;22.20;;;14.00;89.70;;;;;;4992198;28;20030;-47
2021/09/06 01:55:19;;;;;;;38.08;21.05;;;14.00;89.80;;;;;;4992139;28;20154;-49
2021/09/06 01:57:45;;;;;;;31.52;19.10;;;14.00;89.90;;;;;;4993347;28;20018;-49
2021/09/06 02:00:10;;;;;;;25.90;16.45;;;13.90;89.80;;;;;;4993743;28;20030;-50
2021/09/06 02:02:37;;;;;;;23.23;15.25;;;13.80;89.20;;;;;;4993358;28;20030;-45
2021/09/06 02:05:03;;;;;;;23.42;16.17;;;13.80;89.20;;;;;;4993354;28;20034;-46
2021/09/06 02:07:28;;;;;;;27.13;15.38;;;13.70;89.10;;;;;;4993526;28;20034;-47
2021/09/06 02:09:54;;;;;;;24.75;15.50;;;13.70;89.10;;;;;;4991855;28;20054;-47
2021/09/06 02:12:20;;;;;;;23.40;15.95;;;13.70;89.30;;;;;;4993424;28;20050;-46
2021/09/06 02:14:45;;;;;;;24.95;15.82;;;13.50;89.10;;;;;;4993211;28;20097;-46
2021/09/06 02:17:11;;;;;;;23.38;14.68;;;13.50;89.10;;;;;;4993570;28;20470;-46
2021/09/06 02:19:38;;;;;;;21.30;15.18;;;13.40;89.20;;;;;;4992390;28;20122;-47
2021/09/06 02:22:04;;;;;;;27.38;16.08;;;13.30;89.20;;;;;;4993867;28;20085;-49
2021/09/06 02:24:29;;;;;;;25.20;17.90;;;13.30;89.40;;;;;;4993180;28;20030;-46
2021/09/06 02:26:55;;;;;;;28.23;17.83;;;13.30;89.50;;;;;;4993356;28;20096;-47
2021/09/06 02:29:21;;;;;;;33.53;20.08;;;13.30;89.80;;;;;;4993344;28;20427;-46
2021/09/06 02:31:46;;;;;;;25.77;17.48;;;13.30;90.00;;;;;;4993128;28;20479;-47
2021/09/06 02:34:12;;;;;;;32.22;18.58;;;13.30;90.00;;;;;;4993042;28;20045;-47
2021/09/06 02:36:38;;;;;;;41.33;21.90;;;13.30;90.10;;;;;;4993282;28;20034;-46
2021/09/06 02:39:04;;;;;;;31.17;19.63;;;13.30;90.10;;;;;;4994158;28;20135;-46
2021/09/06 02:41:30;;;;;;;34.35;20.30;;;13.30;90.10;;;;;;4993314;28;20101;-47
2021/09/06 02:43:56;;;;;;;35.20;21.35;;;13.30;90.10;;;;;;4992977;28;20108;-46
2021/09/06 02:46:22;;;;;;;26.95;19.20;;;13.40;89.90;;;;;;4993451;28;20022;-48
2021/09/06 02:48:47;;;;;;;37.88;20.45;;;13.30;89.60;;;;;;4993543;28;20479;-49
2021/09/06 02:51:13;;;;;;;38.17;20.88;;;13.30;89.40;;;;;;4993530;28;20030;-51
2021/09/06 02:53:39;;;;;;;37.42;19.77;;;13.20;89.50;;;;;;4996871;28;20483;-47
2021/09/06 02:56:05;;;;;;;35.85;20.75;;;13.20;89.70;;;;;;4995774;28;20077;-47
2021/09/06 02:58:30;;;;;;;34.53;20.77;;;13.20;89.90;;;;;;4997047;28;20375;-47
2021/09/06 03:00:56;;;;;;;31.45;19.77;;;13.20;89.90;;;;;;4996936;28;20033;-46
2021/09/06 03:03:22;;;;;;;34.42;21.10;;;13.20;89.80;;;;;;4996822;28;20081;-47
2021/09/06 03:05:48;;;;;;;35.25;20.67;;;13.20;90.10;;;;;;4996691;28;20030;-47
2021/09/06 03:08:13;;;;;;;32.88;19.50;;;13.10;90.30;;;;;;4996455;28;20026;-47
2021/09/06 03:10:39;;;;;;;32.85;19.83;;;13.10;90.20;;;;;;4996172;28;20042;-46
2021/09/06 03:13:05;;;;;;;35.28;20.45;;;13.10;90.20;;;;;;4994992;28;20034;-49
2021/09/06 03:15:30;;;;;;;35.58;20.63;;;13.00;90.20;;;;;;4996328;28;20041;-47
2021/09/06 03:17:56;;;;;;;33.83;19.90;;;13.00;90.20;;;;;;4996258;28;20030;-48
2021/09/06 03:20:22;;;;;;;28.75;19.10;;;13.00;90.20;;;;;;4996137;28;20034;-48
2021/09/06 03:22:48;;;;;;;33.42;20.10;;;13.00;90.30;;;;;;4996386;28;20471;-46
2021/09/06 03:25:14;;;;;;;36.03;20.92;;;13.00;90.30;;;;;;4994785;28;20386;-47
2021/09/06 03:27:40;;;;;;;35.35;21.83;;;12.90;90.30;;;;;;4996057;28;20052;-50
2021/09/06 03:30:07;;;;;;;32.38;19.38;;;13.00;90.40;;;;;;4996203;28;20122;-50
2021/09/06 03:32:33;;;;;;;37.70;20.00;;;13.00;90.40;;;;;;4996194;28;20077;-50
2021/09/06 03:34:59;;;;;;;38.47;22.23;;;12.90;90.50;;;;;;4995937;28;20025;-46
2021/09/06 03:37:24;;;;;;;33.92;21.38;;;12.90;90.70;;;;;;4994645;28;20056;-47
2021/09/06 03:39:50;;;;;;;37.30;22.55;;;12.90;90.60;;;;;;4995910;28;20027;-48
2021/09/06 03:42:17;;;;;;;49.28;25.25;;;12.90;90.70;;;;;;4995806;28;20030;-47
2021/09/06 03:44:43;;;;;;;35.15;19.92;;;12.90;90.60;;;;;;4995805;28;20387;-50
2021/09/06 03:47:08;;;;;;;32.75;20.17;;;12.80;90.40;;;;;;4995812;28;20030;-47
2021/09/06 03:49:34;;;;;;;35.28;21.73;;;12.80;90.50;;;;;;4995906;28;20039;-46
2021/09/06 03:52:00;;;;;;;34.22;20.02;;;12.80;90.60;;;;;;4995695;28;20093;-49
2021/09/06 03:54:25;;;;;;;31.90;20.33;;;12.80;90.40;;;;;;4995542;28;20080;-48
2021/09/06 03:56:51;;;;;;;36.65;19.05;;;12.70;90.40;;;;;;4995275;28;20359;-47
2021/09/06 03:59:18;;;;;;;35.45;21.02;;;12.70;90.40;;;;;;4995030;28;20502;-47
2021/09/06 04:01:44;;;;;;;32.72;19.08;;;12.70;90.40;;;;;;4995364;28;20023;-50
2021/09/06 04:04:09;;;;;;;41.75;20.85;;;12.80;90.20;;;;;;4994977;28;20383;-48
2021/09/06 04:06:35;;;;;;;36.13;21.63;;;12.70;90.30;;;;;;4995058;28;20117;-47
2021/09/06 04:09:01;;;;;;;40.90;23.02;;;12.70;90.60;;;;;;4995162;28;20093;-47
2021/09/06 04:11:26;;;;;;;39.35;24.10;;;12.70;90.90;;;;;;4994836;28;20498;-50
2021/09/06 04:13:52;;;;;;;35.20;21.88;;;12.70;91.10;;;;;;4995235;28;20049;-47
2021/09/06 04:16:18;;;;;;;36.53;21.50;;;12.70;91.30;;;;;;4995149;28;20027;-46
2021/09/06 04:18:43;;;;;;;35.47;19.25;;;12.70;91.30;;;;;;4993321;28;20022;-48
2021/09/06 04:21:11;;;;;;;28.80;18.27;;;12.60;91.00;;;;;;4995238;28;20062;-46
2021/09/06 04:23:39;;;;;;;32.70;18.00;;;12.40;90.40;;;;;;4994890;28;20034;-46
2021/09/06 04:26:05;;;;;;;28.92;18.35;;;12.30;90.30;;;;;;4994829;28;20096;-47
2021/09/06 04:28:31;;;;;;;30.13;18.52;;;12.30;90.30;;;;;;4993079;28;20097;-46
2021/09/06 04:30:57;;;;;;;29.52;18.65;;;12.20;90.50;;;;;;4994592;28;20030;-46
2021/09/06 04:33:23;;;;;;;33.08;17.85;;;12.20;90.50;;;;;;4995096;28;20037;-49
2021/09/06 04:35:50;;;;;;;37.50;20.13;;;12.20;90.60;;;;;;4995294;28;20121;-49
2021/09/06 04:38:16;;;;;;;30.45;17.58;;;12.30;90.60;;;;;;4995060;28;20304;-48
2021/09/06 04:40:41;;;;;;;32.05;19.33;;;12.30;90.60;;;;;;4995193;28;20084;-47
2021/09/06 04:43:07;;;;;;;36.95;21.63;;;12.30;90.50;;;;;;4994648;28;20041;-47
2021/09/06 04:45:32;;;;;;;34.58;19.75;;;12.30;90.60;;;;;;4994643;28;20030;-47
2021/09/06 04:47:58;;;;;;;34.30;20.77;;;12.30;90.60;;;;;;4994656;28;20471;-49
2021/09/06 04:50:25;;;;;;;36.90;21.00;;;12.30;90.70;;;;;;4994483;28;20427;-48
2021/09/06 04:52:53;;;;;;;36.38;21.65;;;12.30;90.80;;;;;;4994669;28;20356;-46
2021/09/06 04:55:18;;;;;;;32.95;20.25;;;12.30;90.90;;;;;;4994648;28;20022;-46
2021/09/06 04:57:45;;;;;;;36.03;20.95;;;12.30;90.80;;;;;;4994252;28;20475;-47
2021/09/06 05:00:11;;;;;;;34.45;20.30;;;12.30;90.80;;;;;;4994629;28;20037;-49
2021/09/06 05:02:37;;;;;;;38.50;21.83;;;12.30;90.60;;;;;;4994610;28;20467;-46
2021/09/06 05:05:03;;;;;;;35.85;22.80;;;12.30;90.40;;;;;;4994866;28;20076;-47
2021/09/06 05:07:28;;;;;;;34.15;21.48;;;12.30;90.50;;;;;;4994252;28;20065;-49
2021/09/06 05:09:54;;;;;;;38.25;22.73;;;12.30;90.40;;;;;;4994200;28;20094;-47
2021/09/06 05:12:20;;;;;;;36.17;21.45;;;12.30;90.40;;;;;;4994239;28;20104;-47
2021/09/06 05:14:45;;;;;;;39.53;22.33;;;12.20;90.30;;;;;;4994064;28;20371;-47
2021/09/06 05:17:11;;;;;;;37.92;22.38;;;12.30;90.50;;;;;;4993931;28;20327;-46
2021/09/06 05:19:37;;;;;;;39.53;22.05;;;12.30;90.50;;;;;;4994263;28;20022;-45
2021/09/06 05:22:03;;;;;;;43.50;24.45;;;12.30;90.30;;;;;;4994035;28;20033;-47
2021/09/06 05:24:28;;;;;;;39.50;23.23;;;12.30;90.40;;;;;;4992618;28;20035;-46
2021/09/06 05:26:54;;;;;;;42.50;24.27;;;12.30;90.50;;;;;;4993721;28;20594;-48
2021/09/06 05:29:19;;;;;;;41.15;23.63;;;12.30;90.60;;;;;;4994253;28;20029;-46
2021/09/06 05:31:45;;;;;;;40.30;23.35;;;12.40;90.90;;;;;;4994075;28;20463;-45
2021/09/06 05:34:11;;;;;;;34.80;21.73;;;12.50;91.10;;;;;;4993918;28;20048;-47
2021/09/06 05:36:36;;;;;;;46.05;26.10;;;12.50;91.20;;;;;;4993937;28;20149;-46
2021/09/06 05:39:02;;;;;;;50.03;27.17;;;12.50;91.40;;;;;;4993575;28;20030;-48
2021/09/06 05:41:29;;;;;;;46.13;27.10;;;12.60;91.40;;;;;;4992328;28;20027;-47
2021/09/06 05:43:54;;;;;;;46.00;27.67;;;12.70;91.50;;;;;;4993278;28;20022;-47
2021/09/06 05:46:20;;;;;;;40.65;26.00;;;12.70;91.30;;;;;;4993594;28;20081;-47
2021/09/06 05:48:46;;;;;;;51.30;29.50;;;12.70;91.40;;;;;;4993447;28;20432;-47
2021/09/06 05:51:11;;;;;;;44.47;27.70;;;12.80;91.40;;;;;;4993509;28;20061;-48
2021/09/06 05:53:37;;;;;;;50.03;29.33;;;12.80;91.60;;;;;;4993251;28;20079;-46
2021/09/06 05:56:03;;;;;;;43.50;27.60;;;12.80;91.80;;;;;;4991822;28;20022;-49
2021/09/06 05:58:29;;;;;;;45.25;28.38;;;12.80;91.90;;;;;;4991927;28;20022;-46
2021/09/06 06:00:55;;;;;;;47.67;27.63;;;12.90;91.80;;;;;;4993521;28;20026;-48
2021/09/06 06:03:20;;;;;;;46.53;28.75;;;13.10;91.60;;;;;;4993430;28;20038;-47
2021/09/06 06:05:46;;;;;;;45.42;28.55;;;13.10;91.40;;;;;;4993335;28;20542;-48
2021/09/06 06:08:12;;;;;;;44.88;28.63;;;13.20;91.00;;;;;;4993926;28;20022;-51
2021/09/06 06:10:37;;;;;;;54.92;31.23;;;13.20;91.00;;;;;;4993271;28;20133;-46
2021/09/06 06:13:03;;;;;;;51.60;29.30;;;13.30;90.90;;;;;;4992194;28;20022;-47
2021/09/06 06:15:29;;;;;;;44.72;26.52;;;13.30;90.40;;;;;;4994267;28;20022;-52
2021/09/06 06:17:55;;;;;;;44.78;28.67;;;13.40;90.50;;;;;;4992991;28;20019;-47
2021/09/06 06:20:20;;;;;;;45.72;30.15;;;13.40;90.50;;;;;;4993045;28;20061;-50
2021/09/06 06:22:46;;;;;;;58.63;36.25;;;13.50;90.40;;;;;;4992870;28;20034;-46
2021/09/06 06:25:12;;;;;;;52.88;31.73;;;13.70;90.00;;;;;;4993271;28;20022;-47
2021/09/06 06:27:38;;;;;;;50.90;30.65;;;13.70;89.80;;;;;;4995650;28;20041;-47
2021/09/06 06:30:04;;;;;;;49.72;29.17;;;13.70;89.90;;;;;;4997167;28;20061;-47
2021/09/06 06:32:29;;;;;;;42.75;30.23;;;13.80;90.10;;;;;;4996901;28;20050;-48
2021/09/06 06:34:55;;;;;;;50.03;30.48;;;13.80;90.00;;;;;;4996969;28;20027;-46
2021/09/06 06:37:21;;;;;;;52.95;32.92;;;13.90;89.90;;;;;;4996829;28;20491;-48
2021/09/06 06:39:46;;;;;;;51.05;31.00;;;14.00;89.90;;;;;;4997191;28;20438;-47
2021/09/06 06:42:12;;;;;;;43.38;27.77;;;14.20;89.20;;;;;;4997024;28;20027;-47
2021/09/06 06:44:40;;;;;;;47.72;30.95;;;14.30;88.90;;;;;;4996998;28;20027;-47
2021/09/06 06:47:06;;;;;;;46.15;29.58;;;14.40;88.60;;;;;;4996961;28;20061;-48
2021/09/06 06:49:31;;;;;;;46.70;30.80;;;14.50;88.40;;;;;;4996554;28;20037;-51
2021/09/06 06:51:57;;;;;;;51.50;29.67;;;14.60;88.00;;;;;;4996888;28;20458;-49
2021/09/06 06:54:23;;;;;;;42.35;29.00;;;14.60;88.30;;;;;;4996789;28;20082;-48
2021/09/06 06:56:48;;;;;;;48.28;29.67;;;14.80;87.80;;;;;;4995063;28;20034;-47
2021/09/06 06:59:14;;;;;;;47.00;29.73;;;14.80;87.60;;;;;;4996745;28;20060;-48
2021/09/06 07:01:41;;;;;;;49.85;31.63;;;15.00;87.50;;;;;;4996058;28;20479;-48
2021/09/06 07:04:06;;;;;;;44.03;28.70;;;15.20;86.90;;;;;;4994949;28;20382;-46
2021/09/06 07:06:32;;;;;;;45.90;29.50;;;15.20;86.90;;;;;;4996113;28;20033;-46
2021/09/06 07:08:58;;;;;;;45.30;27.88;;;15.30;86.40;;;;;;4995949;28;20070;-50
2021/09/06 07:11:25;;;;;;;56.38;30.73;;;15.50;86.30;;;;;;4996001;28;20064;-46
2021/09/06 07:13:50;;;;;;;44.97;28.40;;;15.70;86.00;;;;;;4995960;28;20127;-51
2021/09/06 07:16:16;;;;;;;45.00;28.13;;;16.00;84.80;;;;;;4994309;28;20478;-49
2021/09/06 07:18:42;;;;;;;48.03;28.65;;;16.00;84.40;;;;;;4995787;28;20030;-49
2021/09/06 07:21:07;;;;;;;43.47;28.85;;;16.00;84.80;;;;;;4996106;28;20023;-47
2021/09/06 07:23:33;;;;;;;42.65;28.10;;;16.20;84.60;;;;;;4995597;28;20026;-47
2021/09/06 07:25:58;;;;;;;43.17;28.95;;;16.40;84.20;;;;;;4995762;28;20029;-46
2021/09/06 07:28:24;;;;;;;42.58;28.20;;;16.70;83.20;;;;;;4995814;28;20037;-47
2021/09/06 07:30:50;;;;;;;42.20;28.48;;;16.90;82.50;;;;;;4995595;28;20122;-51
2021/09/06 07:33:16;;;;;;;49.15;30.30;;;16.90;82.40;;;;;;4994244;28;20077;-49
2021/09/06 07:35:41;;;;;;;41.13;29.30;;;17.00;81.60;;;;;;4995830;28;20356;-47
2021/09/06 07:38:07;;;;;;;42.13;27.13;;;17.20;81.60;;;;;;4994763;28;20415;-47
2021/09/06 07:40:32;;;;;;;48.17;29.80;;;17.30;81.30;;;;;;4995537;28;20053;-50
2021/09/06 07:42:58;;;;;;;50.95;30.35;;;17.40;80.40;;;;;;4995219;28;20394;-46
2021/09/06 07:45:24;;;;;;;42.00;26.27;;;17.50;80.00;;;;;;4995469;28;20550;-49
2021/09/06 07:47:50;;;;;;;44.13;26.75;;;17.70;79.60;;;;;;4995742;28;20030;-51
2021/09/06 07:50:19;;;;;;;42.90;26.38;;;17.70;79.00;;;;;;4995552;28;20120;-47
2021/09/06 07:52:45;;;;;;;44.08;26.38;;;18.00;77.90;;;;;;4995148;28;20054;-49
2021/09/06 07:55:11;;;;;;;43.42;27.73;;;18.30;77.30;;;;;;4995282;28;20038;-47
2021/09/06 07:57:36;;;;;;;41.53;27.00;;;18.20;77.20;;;;;;4994881;28;20026;-48
2021/09/06 08:00:03;;;;;;;40.53;26.95;;;18.40;77.10;;;;;;4993758;28;20037;-47
2021/09/06 08:02:37;;;;;;;42.42;27.17;;;18.60;76.10;;;;;;4993557;28;20031;-47
2021/09/06 08:05:03;;;;;;;40.97;26.23;;;18.70;76.40;;;;;;4995000;28;20081;-49
2021/09/06 08:07:29;;;;;;;41.45;25.80;;;18.80;76.20;;;;;;4995181;28;20466;-48
2021/09/06 08:09:54;;;;;;;41.50;23.90;;;19.10;74.30;;;;;;4994767;28;20077;-49
2021/09/06 08:12:20;;;;;;;33.25;22.10;;;19.50;72.90;;;;;;4994675;28;20029;-49
2021/09/06 08:14:46;;;;;;;33.88;21.80;;;19.90;71.10;;;;;;4995218;28;20035;-47
2021/09/06 08:17:11;;;;;;;34.78;21.15;;;20.50;69.50;;;;;;4994779;28;20022;-47
2021/09/06 08:19:37;;;;;;;28.88;20.45;;;21.20;67.30;;;;;;4994386;28;20037;-49
2021/09/06 08:22:03;;;;;;;31.38;20.77;;;21.40;65.20;;;;;;4994835;28;20042;-48
2021/09/06 08:24:29;;;;;;;26.17;18.90;;;21.70;64.40;;;;;;4994874;28;20471;-48
2021/09/06 08:26:54;;;;;;;27.63;19.27;;;21.50;64.50;;;;;;4994343;28;20026;-47
2021/09/06 08:29:20;;;;;;;30.15;20.65;;;21.60;64.30;;;;;;4994521;28;20030;-48
2021/09/06 08:31:46;;;;;;;29.52;19.20;;;21.70;64.10;;;;;;4994349;28;20030;-49
2021/09/06 08:34:12;;;;;;;28.75;20.55;;;22.30;62.70;;;;;;4994288;28;20025;-50
2021/09/06 08:36:38;;;;;;;29.90;19.98;;;22.20;62.90;;;;;;4994210;28;20030;-49
2021/09/06 08:39:04;;;;;;;30.95;22.17;;;22.50;62.50;;;;;;4994211;28;20019;-49
2021/09/06 08:41:30;;;;;;;30.35;20.30;;;23.40;59.20;;;;;;4994674;28;20342;-47
2021/09/06 08:43:57;;;;;;;28.27;19.02;;;23.60;57.60;;;;;;4993147;28;20038;-49
2021/09/06 08:46:24;;;;;;;29.17;20.55;;;23.50;58.20;;;;;;4993760;28;20425;-47
2021/09/06 08:48:50;;;;;;;28.95;20.17;;;23.20;59.10;;;;;;4993439;28;20105;-46
2021/09/06 08:51:17;;;;;;;27.77;18.80;;;23.80;57.60;;;;;;4993041;28;20113;-47
2021/09/06 08:53:43;;;;;;;27.20;19.30;;;23.60;57.30;;;;;;4992476;28;20451;-48
2021/09/06 08:56:08;;;;;;;29.77;18.33;;;23.80;56.60;;;;;;4993855;28;20033;-48
2021/09/06 08:58:34;;;;;;;25.80;17.10;;;23.60;56.40;;;;;;4993244;28;20026;-48
2021/09/06 09:01:00;;;;;;;21.95;15.88;;;24.00;55.10;;;;;;4994246;28;20546;-48
2021/09/06 09:03:26;;;;;;;24.25;15.85;;;24.70;53.60;;;;;;4993766;28;20454;-48
2021/09/06 09:05:57;;;;;;;22.08;15.93;;;25.00;51.70;;;;;;4993798;28;20116;-49
2021/09/06 09:08:23;;;;;;;27.73;16.23;;;25.10;51.60;;;;;;4994436;28;20030;-51
2021/09/06 09:10:49;;;;;;;24.10;16.50;;;26.20;49.00;;;;;;4994774;28;20354;-50
2021/09/06 09:13:16;;;;;;;23.95;15.77;;;26.20;47.80;;;;;;4992747;28;20019;-47
2021/09/06 09:15:53;;;;;;;25.10;16.02;;;25.90;48.50;;;;;;4993271;28;20049;-49
2021/09/06 09:18:23;;;;;;;25.55;15.82;;;25.50;49.30;;;;;;4993278;28;20029;-47
2021/09/06 09:20:58;;;;;;;28.02;18.10;;;26.10;47.90;;;;;;4993728;28;20026;-47
2021/09/06 09:23:36;;;;;;;23.50;15.88;;;25.90;47.20;;;;;;4993111;28;20026;-48
2021/09/06 09:26:03;;;;;;;30.15;18.30;;;25.40;49.00;;;;;;4993655;28;20026;-49
2021/09/06 09:28:30;;;;;;;21.58;16.30;;;25.80;49.00;;;;;;4993242;28;20031;-50
2021/09/06 09:31:13;;;;;;;24.35;15.40;;;25.70;48.20;;;;;;4993321;28;20129;-47
2021/09/06 09:33:53;;;;;;;24.25;16.33;;;25.20;49.60;;;;;;4991765;28;20455;-49
2021/09/06 09:36:33;;;;;;;22.75;16.00;;;26.40;46.70;;;;;;4993285;28;20109;-49
2021/09/06 12:21:44;;;;;;;28.75;13.68;;;28.40;37.50;;;;;;5090003;27;20382;-47
2021/09/06 12:24:10;;;;;;;15.15;12.15;;;28.70;36.90;;;;;;5089851;28;20381;-49
2021/09/06 12:26:40;;;;;;;17.80;13.00;;;28.90;35.90;;;;;;5089424;28;20016;-48
2021/09/06 12:29:06;;;;;;;17.95;12.25;;;29.60;34.20;;;;;;5089586;28;20031;-46
2021/09/06 12:31:43;;;;;;;14.93;10.75;;;29.60;34.50;;;;;;5089621;28;20028;-51
2021/09/06 12:34:13;;;;;;;14.00;9.80;;;29.80;34.00;;;;;;5089085;28;20379;-48
2021/09/06 12:36:40;;;;;;;;;;;29.80;31.60;;;;;;5089902;28;20029;-46
2021/09/06 12:39:06;;;;;;;15.20;10.52;;;29.10;32.90;;;;;;5089289;28;19904;-51
2021/09/06 12:41:32;;;;;;;17.98;9.43;;;28.80;34.40;;;;;;5089228;28;20031;-48
2021/09/06 12:43:58;;;;;;;14.63;10.30;;;29.40;34.00;;;;;;5089058;28;20017;-49
2021/09/06 12:46:26;;;;;;;19.95;10.52;;;28.90;34.50;;;;;;5089064;28;20024;-47
2021/09/06 12:48:51;;;;;;;21.15;10.05;;;28.70;34.20;;;;;;5089139;28;20103;-49
2021/09/06 12:51:17;;;;;;;11.98;9.38;;;28.90;32.80;;;;;;5089688;28;20108;-47
2021/09/06 12:53:43;;;;;;;13.25;8.88;;;29.20;32.50;;;;;;5087811;28;20024;-47
2021/09/06 12:56:10;;;;;;;13.48;9.25;;;29.50;31.90;;;;;;5089524;28;20101;-48
2021/09/06 12:58:36;;;;;;;11.80;9.23;;;29.10;32.00;;;;;;5088818;28;20043;-47
2021/09/06 13:01:01;;;;;;;11.98;8.88;;;27.70;35.10;;;;;;5087250;28;20028;-47
2021/09/06 13:03:27;;;;;;;10.77;8.10;;;28.20;33.30;;;;;;5088690;28;20124;-48
2021/09/06 13:05:55;;;;;;;17.65;9.05;;;27.70;32.80;;;;;;5088549;28;20052;-47
2021/09/06 13:08:20;;;;;;;14.40;8.23;;;27.60;34.50;;;;;;5087893;28;20020;-49
2021/09/06 13:10:49;;;;;;;12.23;8.55;;;27.00;36.00;;;;;;5087664;28;20123;-48
2021/09/06 13:13:15;;;;;;;15.82;9.85;;;27.00;36.50;;;;;;5088637;28;20107;-51
2021/09/06 13:15:41;;;;;;;12.43;9.00;;;26.50;37.80;;;;;;5088718;28;20071;-48
2021/09/06 13:18:06;;;;;;;14.32;9.35;;;26.80;37.60;;;;;;5088538;28;20468;-48
2021/09/06 13:20:32;;;;;;;12.35;9.10;;;26.00;39.00;;;;;;5086454;28;20051;-46
2021/09/06 13:22:58;;;;;;;11.77;8.07;;;25.90;39.60;;;;;;5088638;28;20016;-47
2021/09/06 13:25:24;;;;;;;11.73;8.27;;;26.20;39.30;;;;;;5088083;28;20524;-48
2021/09/06 13:27:50;;;;;;;11.90;7.63;;;26.30;39.50;;;;;;5088348;28;20129;-50
2021/09/06 13:30:16;;;;;;;11.70;9.05;;;26.50;39.30;;;;;;5088103;28;20024;-47
2021/09/06 13:32:45;;;;;;;17.33;9.63;;;26.60;38.80;;;;;;5076779;28;20078;-47
2021/09/06 13:35:11;;;;;;;11.48;9.38;;;26.80;38.30;;;;;;5074711;28;20032;-50
2021/09/06 13:37:37;;;;;;;14.90;10.13;;;26.60;38.70;;;;;;5074219;28;20058;-48
2021/09/06 13:40:04;;;;;;;13.35;9.05;;;26.30;39.80;;;;;;5074037;28;20035;-50
2021/09/06 13:42:30;;;;;;;10.95;8.02;;;26.30;40.30;;;;;;5072616;28;20056;-47
2021/09/06 13:44:56;;;;;;;14.88;8.65;;;26.50;39.70;;;;;;5073137;28;20048;-47
2021/09/06 13:47:21;;;;;;;12.00;8.30;;;26.50;39.90;;;;;;5074824;28;20028;-49
2021/09/06 13:49:47;;;;;;;12.50;9.25;;;26.40;39.90;;;;;;5074910;28;20055;-48
2021/09/06 13:52:13;;;;;;;16.45;8.65;;;26.10;40.40;;;;;;5072764;28;20488;-46
2021/09/06 13:54:38;;;;;;;11.52;8.30;;;26.20;40.40;;;;;;5074166;28;20104;-46
2021/09/06 13:57:04;;;;;;;13.35;9.15;;;26.30;40.40;;;;;;5074416;28;20101;-46
2021/09/06 13:59:30;;;;;;;14.60;8.63;;;26.10;40.10;;;;;;5074787;28;20086;-50
2021/09/06 14:01:59;;;;;;;13.60;8.93;;;26.40;39.60;;;;;;5075218;28;20099;-48
2021/09/06 14:04:25;;;;;;;10.75;8.07;;;26.40;38.90;;;;;;5074460;28;20031;-47
2021/09/06 14:06:50;;;;;;;13.10;8.85;;;26.30;38.50;;;;;;5074251;28;20433;-49
2021/09/06 14:09:16;;;;;;;12.98;8.15;;;26.30;38.50;;;;;;5074558;28;20403;-47
2021/09/06 14:11:42;;;;;;;11.95;7.60;;;26.30;38.90;;;;;;5073819;28;20025;-55
2021/09/06 14:14:07;;;;;;;7.93;6.25;;;26.00;37.30;;;;;;5072678;28;20056;-49
2021/09/06 14:16:38;;;;;;;12.00;7.70;;;25.60;35.90;;;;;;5074123;28;20025;-49
2021/09/06 14:19:03;;;;;;;8.98;6.82;;;25.30;37.40;;;;;;5073847;28;20016;-50
2021/09/06 14:21:29;;;;;;;12.63;7.30;;;25.30;37.30;;;;;;5074465;28;20461;-47
2021/09/06 14:23:55;;;;;;;9.48;6.60;;;25.40;36.80;;;;;;5073610;28;20047;-49
2021/09/06 14:26:20;;;;;;;8.18;6.97;;;25.50;37.00;;;;;;5073457;28;20025;-47
2021/09/06 14:28:46;;;;;;;10.18;7.97;;;25.50;36.50;;;;;;5072340;28;20024;-48
2021/09/06 14:31:12;;;;;;;9.88;6.78;;;25.50;36.90;;;;;;5073354;28;20025;-51
2021/09/06 14:33:37;;;;;;;11.48;6.15;;;25.60;35.90;;;;;;5073464;28;20029;-51
2021/09/06 14:36:03;;;;;;;7.97;6.57;;;25.70;35.70;;;;;;5073703;28;20477;-49
2021/09/06 14:38:35;;;;;;;8.77;6.63;;;25.80;35.00;;;;;;5074150;28;20484;-47
2021/09/06 14:41:01;;;;;;;9.73;6.13;;;25.60;34.80;;;;;;5072298;28;20031;-47
2021/09/06 14:43:26;;;;;;;8.82;6.88;;;25.50;34.80;;;;;;5072570;28;20344;-48
2021/09/06 14:45:52;;;;;;;12.07;7.57;;;25.50;36.00;;;;;;5073311;28;20108;-47
2021/09/06 14:48:18;;;;;;;11.25;7.38;;;25.40;36.40;;;;;;5073047;28;20028;-47
2021/09/06 14:50:43;;;;;;;9.95;6.70;;;25.30;36.80;;;;;;5072944;28;20052;-46
2021/09/06 14:53:09;;;;;;;12.18;7.50;;;25.40;37.80;;;;;;5073123;28;20043;-48
2021/09/06 14:55:35;;;;;;;9.50;6.88;;;25.40;38.00;;;;;;5073076;28;20056;-47
2021/09/06 14:58:00;;;;;;;12.68;6.90;;;25.30;38.00;;;;;;5073354;28;20476;-51
2021/09/06 15:00:26;;;;;;;10.55;7.20;;;25.30;38.30;;;;;;5073429;28;20024;-47
2021/09/06 15:02:52;;;;;;;8.43;6.43;;;25.10;38.70;;;;;;5071297;28;20046;-48
2021/09/06 15:05:17;;;;;;;10.10;7.05;;;25.10;38.60;;;;;;5071209;28;20118;-48
2021/09/06 15:07:43;;;;;;;11.88;7.95;;;25.10;39.80;;;;;;5072733;28;20020;-48